ASN logo
Last updated: 6 December 2021
Statuts:Préliminaire
Date:dimanche 14 novembre 2021
Heure:13:15
Type/Sous-type:Silhouette image of generic ASTR model; specific model in this crash may look slightly different
IAI 1125 Astra SP
Compagnie:EMD Astra Holdings LLC
Immatriculation: N771DX
Numéro de série: 077
Année de Fabrication: 1995
Moteurs: 2 Honeywell TFE731-3C
Equipage:victimes: 0 / à bord: 2
Passagers:victimes: 0 / à bord: 0
Total:victimes: 0 / à bord: 2
Dégats de l'appareil: Substantiels
Lieu de l'accident:Las Vegas-North Air Terminal, NV (VGT) (   Etats-Unis d'Amérique)
Phase de vol: A l'atterrissage (LDG)
Nature:Privé
Aéroport de départ:Las Vegas-North Air Terminal, NV (VGT/KVGT), Etats-Unis d'Amérique
Aéroport de destination:Las Vegas-North Air Terminal, NV (VGT/KVGT), Etats-Unis d'Amérique
Détails:
An IAI 1125 Astra SP jet, N771DX, sustained substantial damage when it experienced a runway excursion upon landing on runway 30R (4199' long). Airport lighting and equipment was struck. The two occupants onboard were uninjured.

Sources:
» FAA

METAR Weather report:
20:53 UTC / 14:53 local time:
METAR KVGT 142053Z 11003KT 10SM CLR 26/M02 A3018


Photos

Add your photo of this accident or aircraft

Plan

Les informations ci-dessus ne représentent pas l'opinion de la 'Flight Safety Foundation' ou de 'Aviation Safety Network' sur les causes de l'accident. Ces informations prélimimaires sont basées sur les faits tel qu'ils sont connus à ce jour.
languages: languages

Share